Time;durP1;ratioP1;P1;durP2;ratioP2;P2;SDS_P1;SDS_P2;PMS_P1;PMS_P2;Temp;Humidity;BMP_temperature;BMP_pressure;BME280_temperature;BME280_humidity;BME280_pressure;Samples;Min_cycle;Max_cycle;Signal;HPM_P1;HPM_P2
2022/06/04 00:00:38;;;;;;;11.13;10.03;;;21.20;99.90;;;21.65;68.44;95408.81;5072838;28;20470;-55
2022/06/04 00:03:06;;;;;;;17.03;11.00;;;21.20;99.90;;;21.65;68.89;95413.34;5072902;28;20963;-55
2022/06/04 00:05:37;;;;;;;10.97;9.87;;;21.20;99.90;;;21.64;68.87;95409.00;5072296;28;20482;-54
2022/06/04 00:08:06;;;;;;;18.07;10.43;;;21.20;99.90;;;21.62;68.79;95406.53;5071583;28;20435;-55
2022/06/04 00:16:03;;;;;;;18.50;9.43;;;21.10;99.90;;;21.59;69.11;95412.28;5020201;28;20456;-54
2022/06/04 00:18:30;;;;;;;12.40;10.40;;;21.10;99.90;;;21.58;69.24;95415.13;5066692;28;20491;-56
2022/06/04 00:20:57;;;;;;;15.13;11.07;;;21.10;99.90;;;21.55;69.11;95403.00;5064316;28;20467;-55
2022/06/04 00:23:27;;;;;;;17.87;11.50;;;21.10;99.90;;;21.54;69.25;95403.19;5061127;28;20840;-54
2022/06/04 00:25:57;;;;;;;23.07;12.10;;;21.00;99.90;;;21.50;69.05;95397.38;5065347;28;20475;-56
2022/06/04 00:28:25;;;;;;;16.17;10.73;;;21.00;99.90;;;21.48;69.36;95404.75;5076986;28;20519;-55
2022/06/04 00:30:52;;;;;;;13.03;11.37;;;21.00;99.90;;;21.44;69.27;95404.31;5073441;28;20469;-54
2022/06/04 00:33:20;;;;;;;13.10;11.10;;;21.00;99.90;;;21.42;69.49;95409.03;5080670;28;20985;-54
2022/06/04 00:35:50;;;;;;;19.10;10.90;;;21.00;99.90;;;21.40;69.51;95407.59;5080092;28;20466;-55
2022/06/04 00:38:19;;;;;;;18.80;12.47;;;21.00;99.90;;;21.38;69.57;95399.75;5080337;28;20489;-54
2022/06/04 00:40:50;;;;;;;18.23;11.00;;;20.90;99.90;;;21.36;68.83;95390.25;5077086;28;20477;-55
2022/06/04 00:43:17;;;;;;;16.03;11.40;;;20.90;99.90;;;21.34;69.65;95386.94;5071504;28;20454;-54
2022/06/04 00:46:37;;;;;;;15.97;11.90;;;20.90;99.90;;;21.31;70.17;95388.16;5075551;28;20475;-53
2022/06/04 00:49:04;;;;;;;19.13;12.50;;;20.80;99.90;;;21.26;69.49;95379.88;5071226;28;20462;-54
2022/06/04 00:51:31;;;;;;;13.30;10.53;;;20.80;99.90;;;21.23;69.86;95382.97;5078027;28;20451;-54
2022/06/04 00:53:59;;;;;;;15.83;11.60;;;20.80;99.90;;;21.22;69.73;95386.63;5073253;28;21064;-55
2022/06/04 00:56:31;;;;;;;18.10;10.93;;;20.80;99.90;;;21.21;70.11;95384.97;5076017;28;20473;-55
2022/06/04 00:59:15;;;;;;;19.13;10.60;;;20.80;99.90;;;21.21;70.25;95384.97;5072621;28;20523;-55
2022/06/04 01:01:49;;;;;;;34.13;10.43;;;20.80;99.90;;;21.17;69.68;95373.03;5070789;28;20445;-55
2022/06/04 01:07:16;;;;;;;13.50;10.80;;;20.70;99.90;;;21.12;69.39;95358.38;5070220;28;20585;-55
2022/06/04 01:09:54;;;;;;;13.10;11.20;;;20.70;99.90;;;21.10;69.75;95355.06;5068471;28;20493;-54
2022/06/04 01:12:43;;;;;;;20.03;11.27;;;20.70;99.90;;;21.06;69.87;95366.34;5066843;28;20453;-55
2022/06/04 01:15:20;;;;;;;18.80;12.30;;;20.60;99.90;;;21.03;69.80;95367.56;5068265;28;20470;-55
2022/06/04 01:17:57;;;;;;;16.27;12.60;;;20.60;99.90;;;20.99;69.56;95374.31;5066463;28;20503;-55
2022/06/04 01:20:34;;;;;;;13.27;11.20;;;20.60;99.90;;;20.98;69.74;95378.00;5067163;28;21051;-55
2022/06/04 01:23:42;;;;;;;17.30;12.50;;;20.50;99.90;;;20.95;70.07;95365.03;5066885;28;20830;-53
2022/06/04 01:26:42;;;;;;;16.00;12.17;;;20.50;99.90;;;20.91;70.11;95361.06;5062690;28;20477;-54
2022/06/04 01:29:12;;;;;;;19.80;12.00;;;20.50;99.90;;;20.88;69.64;95350.75;5064695;28;20454;-53
2022/06/04 01:31:44;;;;;;;15.13;12.37;;;20.40;99.90;;;20.87;69.75;95349.13;5081958;28;20834;-54
2022/06/04 01:34:13;;;;;;;16.90;13.10;;;20.40;99.90;;;20.84;69.91;95349.50;5070624;28;20442;-55
2022/06/04 01:36:43;;;;;;;19.07;14.40;;;20.40;99.90;;;20.82;70.02;95348.84;5082454;28;20460;-55
2022/06/04 01:39:19;;;;;;;19.00;15.20;;;20.40;99.90;;;20.78;69.67;95351.91;5078355;28;20568;-53
2022/06/04 01:41:50;;;;;;;19.90;15.37;;;20.40;99.90;;;20.77;70.14;95352.09;5077557;28;20446;-54
2022/06/04 01:44:20;;;;;;;15.90;13.03;;;20.30;99.90;;;20.76;69.88;95353.13;5076576;28;20445;-54
2022/06/04 01:46:51;;;;;;;16.73;14.13;;;20.30;99.90;;;20.74;70.17;95356.00;5077477;28;20478;-54
2022/06/04 01:49:21;;;;;;;19.47;13.17;;;20.30;99.90;;;20.73;70.33;95358.88;5073025;28;21052;-53
2022/06/04 01:51:49;;;;;;;23.20;15.17;;;20.30;99.90;;;20.71;70.09;95367.06;5077038;28;20456;-53
2022/06/04 01:54:19;;;;;;;20.70;15.10;;;20.30;99.90;;;20.69;70.35;95368.28;5075275;28;20464;-53
2022/06/04 01:56:50;;;;;;;23.13;15.33;;;20.30;99.90;;;20.65;69.96;95378.53;5074894;28;20450;-54
2022/06/04 01:59:20;;;;;;;20.03;15.23;;;20.20;99.90;;;20.62;70.46;95384.22;5073502;28;20592;-55
2022/06/04 02:01:50;;;;;;;17.13;13.77;;;20.20;99.90;;;20.59;70.43;95395.28;5073830;28;20460;-56
2022/06/04 02:04:19;;;;;;;21.93;13.80;;;20.20;99.90;;;20.56;70.71;95388.47;5077623;28;20982;-54
2022/06/04 02:07:29;;;;;;;23.97;14.17;;;20.10;99.90;;;20.54;70.35;95392.34;5075683;28;20454;-55
2022/06/04 02:09:38;;;;;;;19.60;13.60;;;20.10;99.90;;;20.51;70.17;95388.22;5072295;28;20680;-53
2022/06/04 02:12:07;;;;;;;19.30;12.07;;;20.10;99.90;;;20.50;70.18;95391.09;5070939;28;20462;-54
2022/06/04 02:14:35;;;;;;;17.00;12.03;;;20.10;99.90;;;20.47;70.10;95388.78;5074261;28;20473;-53
2022/06/04 02:17:05;;;;;;;20.50;10.30;;;20.00;99.90;;;20.42;70.47;95400.03;5073168;28;20555;-54
2022/06/04 02:19:32;;;;;;;12.90;10.30;;;20.10;99.90;;;20.41;70.22;95406.38;5071346;28;20497;-54
2022/06/04 02:22:00;;;;;;;13.90;10.80;;;20.00;99.90;;;20.37;70.63;95419.31;5072126;28;20463;-55
2022/06/04 02:24:27;;;;;;;12.10;10.63;;;20.00;99.90;;;20.35;70.60;95415.97;5071046;28;20478;-56
2022/06/04 02:26:55;;;;;;;11.47;10.37;;;19.90;99.90;;;20.32;70.63;95416.34;5068916;28;20860;-54
2022/06/04 02:29:23;;;;;;;16.10;12.07;;;19.90;99.90;;;20.30;70.62;95407.69;5067455;28;20466;-55
2022/06/04 02:31:53;;;;;;;16.70;11.87;;;19.90;99.90;;;20.31;70.79;95413.84;5065218;28;20463;-54
2022/06/04 02:34:25;;;;;;;11.80;10.60;;;19.90;99.90;;;20.28;71.09;95412.41;5078218;28;20986;-55
2022/06/04 02:36:58;;;;;;;20.97;10.43;;;19.90;99.90;;;20.27;71.15;95416.09;5080298;28;20454;-55
2022/06/04 02:39:29;;;;;;;19.40;10.20;;;19.90;99.90;;;20.26;70.79;95417.09;5076081;28;20495;-55
2022/06/04 02:42:07;;;;;;;16.20;11.50;;;19.90;99.90;;;20.25;71.06;95418.13;5082425;28;20893;-55
2022/06/04 02:44:40;;;;;;;13.53;10.67;;;19.80;99.90;;;20.22;71.85;95415.81;5073264;28;20480;-54
2022/06/04 02:47:10;;;;;;;12.53;10.93;;;19.80;99.90;;;20.21;71.34;95411.50;5074021;28;20461;-55
2022/06/04 02:49:40;;;;;;;16.83;10.57;;;19.80;99.90;;;20.19;71.15;95406.34;5075116;28;20474;-54
2022/06/04 02:52:08;;;;;;;14.73;10.40;;;19.80;99.90;;;20.18;71.15;95403.84;5075530;28;20461;-52
2022/06/04 02:54:39;;;;;;;11.30;9.47;;;19.70;99.90;;;20.17;71.44;95408.38;5075072;28;20485;-55
2022/06/04 02:57:07;;;;;;;14.53;12.07;;;19.70;99.90;;;20.16;71.46;95403.22;5072191;28;20989;-54
2022/06/04 02:59:36;;;;;;;15.27;11.53;;;19.70;99.90;;;20.17;71.56;95402.19;5076206;28;20503;-54
2022/06/04 03:02:04;;;;;;;14.00;11.60;;;19.70;99.90;;;20.17;71.34;95399.50;5072334;28;20464;-53
2022/06/04 03:04:41;;;;;;;18.83;9.97;;;19.70;99.90;;;20.16;71.50;95397.88;5069885;28;20485;-55
2022/06/04 03:07:10;;;;;;;14.50;11.10;;;19.70;99.90;;;20.13;71.58;95382.22;5073952;28;20455;-55
2022/06/04 03:09:38;;;;;;;12.60;9.53;;;19.70;99.90;;;20.09;71.41;95383.59;5068676;28;20479;-54
2022/06/04 03:12:07;;;;;;;14.97;10.83;;;19.70;99.90;;;20.03;71.52;95380.66;5069572;28;20458;-55
2022/06/04 03:14:36;;;;;;;17.67;11.40;;;19.60;99.90;;;20.04;71.69;95384.16;5072437;28;20908;-53
2022/06/04 03:17:06;;;;;;;18.00;11.43;;;19.60;99.90;;;20.06;71.71;95385.63;5068441;28;20466;-54
2022/06/04 03:19:34;;;;;;;11.07;9.30;;;19.60;99.90;;;20.04;71.43;95382.31;5070899;28;20971;-55
2022/06/04 03:22:01;;;;;;;16.90;10.37;;;19.60;99.90;;;20.01;71.41;95382.69;5070386;28;20451;-54
2022/06/04 03:24:28;;;;;;;15.70;9.53;;;19.60;99.90;;;19.99;71.01;95384.72;5066634;28;20943;-54
2022/06/04 03:26:56;;;;;;;13.33;9.97;;;19.60;99.90;;;20.00;71.39;95381.03;5071083;28;20904;-55
2022/06/04 03:29:23;;;;;;;13.23;9.57;;;19.60;99.90;;;20.01;71.53;95388.00;5069341;28;20485;-55
2022/06/04 03:31:52;;;;;;;12.23;10.70;;;19.60;99.90;;;20.05;71.56;95383.16;5070235;28;20469;-55
2022/06/04 03:34:19;;;;;;;16.87;10.10;;;19.60;99.90;;;20.08;71.95;95374.78;5063470;28;20521;-53
2022/06/04 03:36:47;;;;;;;17.00;10.97;;;19.60;99.90;;;20.11;71.32;95381.56;5076766;28;20446;-55
2022/06/04 03:39:14;;;;;;;22.40;11.20;;;19.70;99.90;;;20.14;71.95;95383.84;5077845;28;20505;-54
2022/06/04 03:41:42;;;;;;;20.97;11.23;;;19.70;99.90;;;20.16;71.96;95377.31;5072137;28;21009;-54
2022/06/04 03:44:09;;;;;;;16.83;10.60;;;19.70;99.90;;;20.21;71.94;95387.44;5077405;28;20466;-54
2022/06/04 03:46:37;;;;;;;13.00;9.50;;;19.80;99.90;;;20.23;71.63;95385.41;5077365;28;20458;-55
2022/06/04 03:49:06;;;;;;;15.50;10.90;;;19.80;99.90;;;20.24;71.41;95381.72;5072235;28;20825;-55
2022/06/04 03:51:33;;;;;;;19.77;11.53;;;19.80;99.90;;;20.30;71.37;95391.66;5078835;28;20541;-55
2022/06/04 03:54:01;;;;;;;14.07;12.60;;;19.90;99.90;;;20.34;71.47;95378.75;5076155;28;20470;-53
2022/06/04 03:56:28;;;;;;;22.67;12.73;;;19.90;99.90;;;20.36;70.95;95380.22;5079170;28;20990;-54
2022/06/04 03:58:55;;;;;;;20.40;12.33;;;19.90;99.90;;;20.40;71.31;95386.00;5076802;28;20489;-53
2022/06/04 04:01:24;;;;;;;25.80;11.90;;;20.00;99.90;;;20.43;70.93;95401.66;5074347;28;20474;-55
2022/06/04 04:03:52;;;;;;;29.67;12.90;;;20.00;99.90;;;20.48;70.95;95409.97;5072464;28;20462;-55
2022/06/04 04:06:23;;;;;;;20.07;12.57;;;20.10;99.90;;;20.53;70.66;95401.41;5071830;28;20517;-54
2022/06/04 04:08:50;;;;;;;25.67;14.57;;;20.10;99.90;;;20.57;70.73;95402.66;5059744;28;20517;-54
2022/06/04 04:11:19;;;;;;;26.63;15.00;;;20.10;99.90;;;20.62;70.45;95408.28;5072737;28;20477;-55
2022/06/04 04:13:47;;;;;;;19.13;13.00;;;20.20;99.90;;;20.66;70.45;95412.25;5070271;28;20991;-54
2022/06/04 04:16:16;;;;;;;21.10;14.33;;;20.20;99.90;;;20.72;70.03;95411.47;5072085;28;20475;-55
2022/06/04 04:18:43;;;;;;;29.23;13.17;;;20.30;99.90;;;20.78;70.27;95416.06;5070410;28;20489;-55
2022/06/04 04:21:12;;;;;;;14.73;12.87;;;20.40;99.90;;;20.85;70.28;95410.81;5066988;28;20918;-58
2022/06/04 04:23:41;;;;;;;30.67;12.63;;;20.40;99.90;;;20.92;69.82;95413.53;5070245;28;20453;-55
2022/06/04 04:26:10;;;;;;;19.00;11.90;;;20.50;99.90;;;20.98;69.73;95420.81;5067856;28;20475;-54
2022/06/04 04:28:37;;;;;;;12.33;11.13;;;20.50;99.90;;;21.07;69.62;95427.69;5066709;28;20462;-55
2022/06/04 04:31:11;;;;;;;16.53;11.50;;;20.60;99.90;;;21.17;69.53;95429.22;5067751;28;20494;-55
2022/06/04 04:33:38;;;;;;;15.37;12.20;;;20.70;99.90;;;21.25;69.19;95435.22;5065430;28;20467;-56
2022/06/04 04:36:07;;;;;;;14.77;11.23;;;20.80;99.90;;;21.35;68.92;95440.28;5063874;28;20483;-55
2022/06/04 04:38:34;;;;;;;20.53;10.97;;;20.90;99.90;;;21.44;68.80;95439.13;5070958;28;20974;-55
2022/06/04 04:41:03;;;;;;;12.23;11.00;;;21.00;99.90;;;21.54;68.67;95444.16;5075745;28;20481;-53
2022/06/04 04:43:30;;;;;;;12.73;11.03;;;21.10;99.90;;;21.63;68.49;95445.66;5077880;28;20587;-54
2022/06/04 04:46:04;;;;;;;11.13;10.03;;;21.20;99.90;;;21.73;68.27;95445.31;5077432;28;20470;-55
2022/06/04 04:48:31;;;;;;;24.50;11.00;;;21.20;99.90;;;21.82;67.74;95441.47;5079716;28;20458;-56
2022/06/04 04:50:58;;;;;;;15.93;11.30;;;21.30;99.90;;;21.89;67.72;95448.72;5073953;28;20489;-54
2022/06/04 04:53:26;;;;;;;12.77;10.63;;;21.40;99.90;;;21.98;68.35;95455.56;5076338;28;20450;-55
2022/06/04 04:55:53;;;;;;;17.43;11.03;;;21.50;99.90;;;22.05;67.97;95458.31;5077569;28;20485;-53
2022/06/04 04:58:22;;;;;;;15.13;11.13;;;21.60;99.90;;;22.12;67.55;95459.16;5074940;28;20455;-56
2022/06/04 05:00:49;;;;;;;14.73;12.10;;;21.60;99.90;;;22.22;67.11;95448.13;5071018;28;20517;-56
2022/06/04 05:03:17;;;;;;;12.93;11.63;;;21.70;99.90;;;22.31;66.98;95452.31;5068778;28;20636;-55
2022/06/04 05:05:44;;;;;;;12.10;10.20;;;21.80;99.90;;;22.42;66.83;95449.06;5063339;28;20561;-56
2022/06/04 05:08:11;;;;;;;17.80;11.80;;;21.90;99.80;;;22.54;66.69;95447.47;5068787;28;20455;-55
2022/06/04 05:10:39;;;;;;;18.53;11.43;;;22.00;99.60;;;22.68;66.45;95452.84;5070209;28;20467;-54
2022/06/04 05:13:07;;;;;;;14.07;11.60;;;22.20;99.50;;;22.80;66.28;95448.56;5069531;28;20459;-55
2022/06/04 05:15:36;;;;;;;17.00;10.90;;;22.30;99.30;;;22.94;65.77;95449.41;5071973;28;20473;-54
2022/06/04 05:18:03;;;;;;;18.27;10.17;;;22.40;99.10;;;23.07;65.70;95451.31;5071273;28;20446;-56
2022/06/04 05:20:31;;;;;;;17.07;11.50;;;22.50;98.90;;;23.19;64.82;95454.25;5072811;28;20527;-53
2022/06/04 05:22:58;;;;;;;19.83;10.43;;;22.70;98.80;;;23.32;64.75;95456.16;5068904;28;20454;-54
2022/06/04 05:25:26;;;;;;;17.63;10.70;;;22.80;98.70;;;23.44;65.21;95457.19;5068666;28;20482;-54
2022/06/04 05:27:53;;;;;;;13.50;10.23;;;22.90;98.50;;;23.62;64.49;95459.25;5067668;28;20455;-55
2022/06/04 05:30:20;;;;;;;26.53;10.80;;;23.00;98.20;;;23.77;64.22;95462.53;5068062;28;21013;-55
2022/06/04 05:32:49;;;;;;;13.93;11.97;;;23.20;98.00;;;23.93;63.33;95458.63;5067047;28;20465;-55
2022/06/04 05:35:17;;;;;;;21.57;10.40;;;23.40;97.60;;;24.08;63.56;95457.59;5068736;28;20477;-55
2022/06/04 05:37:44;;;;;;;22.83;11.43;;;23.50;97.40;;;24.25;62.96;95458.78;5064993;28;20458;-56
2022/06/04 05:40:12;;;;;;;24.30;11.37;;;23.70;97.20;;;24.41;62.29;95472.78;5067907;28;20886;-57
2022/06/04 05:42:39;;;;;;;14.27;10.50;;;23.80;97.00;;;24.59;61.93;95462.22;5075392;28;20469;-56
2022/06/04 05:45:08;;;;;;;11.83;9.97;;;24.00;97.10;;;24.75;62.04;95468.16;5081556;28;20592;-56
2022/06/04 05:47:36;;;;;;;15.23;10.80;;;24.10;96.50;;;24.90;61.79;95470.56;5080275;28;20454;-54
2022/06/04 05:50:06;;;;;;;35.50;11.23;;;24.30;96.20;;;25.08;61.27;95472.53;5076055;28;20977;-55
2022/06/04 05:52:33;;;;;;;19.57;13.00;;;24.50;96.00;;;25.24;61.26;95474.72;5079541;28;20454;-57
2022/06/04 05:55:01;;;;;;;24.80;10.43;;;24.60;96.00;;;25.38;60.63;95473.63;5082248;28;20481;-55
2022/06/04 05:57:28;;;;;;;16.47;10.30;;;24.80;95.60;;;25.55;60.26;95468.53;5079098;28;20465;-56
2022/06/04 05:59:55;;;;;;;18.47;12.67;;;25.00;95.10;;;25.71;59.33;95466.31;5078888;28;20813;-56
2022/06/04 06:02:22;;;;;;;21.33;11.77;;;25.10;94.60;;;25.77;59.16;95460.88;5070276;28;20480;-55
2022/06/04 06:04:50;;;;;;;12.93;11.20;;;25.20;94.10;;;25.87;58.79;95464.94;5077541;28;20499;-57
2022/06/04 06:07:19;;;;;;;15.90;9.40;;;25.20;93.90;;;26.00;58.04;95462.16;5076416;28;20458;-56
2022/06/04 06:09:46;;;;;;;20.00;11.10;;;25.40;93.60;;;26.15;58.06;95466.38;5076653;28;20493;-57
2022/06/04 06:12:13;;;;;;;18.00;9.50;;;25.50;93.40;;;26.25;57.81;95464.81;5075619;28;20461;-55
2022/06/04 06:14:41;;;;;;;14.63;9.43;;;25.60;93.20;;;26.34;57.74;95465.34;5074392;28;20480;-55
2022/06/04 06:17:08;;;;;;;14.50;9.50;;;25.70;93.00;;;26.39;57.19;95465.50;5075293;28;20448;-55
2022/06/04 06:19:35;;;;;;;17.17;9.93;;;25.80;92.70;;;26.36;57.50;95457.84;5071638;28;20494;-57
2022/06/04 06:22:03;;;;;;;15.50;10.50;;;25.80;92.60;;;26.33;57.19;95454.78;5072816;28;20469;-56
2022/06/04 06:24:32;;;;;;;17.90;9.73;;;25.80;92.40;;;26.31;57.27;95449.63;5070386;28;20474;-59
2022/06/04 06:27:00;;;;;;;15.73;10.63;;;25.70;92.30;;;26.32;57.08;95445.88;5069409;28;20470;-56
2022/06/04 06:29:30;;;;;;;12.57;10.10;;;25.80;92.10;;;26.38;57.12;95450.34;5068528;28;20478;-57
2022/06/04 06:32:00;;;;;;;25.43;9.63;;;25.80;92.10;;;26.56;56.77;95451.41;5069322;28;20965;-55
2022/06/04 06:34:27;;;;;;;9.67;8.70;;;25.90;92.10;;;26.70;56.35;95450.22;5066764;28;21018;-55
2022/06/04 06:36:56;;;;;;;17.20;10.37;;;26.10;91.60;;;26.86;56.04;95442.53;5069037;28;20506;-53
2022/06/04 06:39:24;;;;;;;10.90;8.70;;;26.20;91.30;;;26.99;55.88;95439.69;5068653;28;21089;-54
2022/06/04 06:41:52;;;;;;;16.37;9.03;;;26.30;91.10;;;27.17;55.35;95430.69;5067002;28;20557;-52
2022/06/04 06:44:21;;;;;;;24.23;13.53;;;26.50;90.90;;;27.38;54.96;95442.88;5071413;28;20449;-56
2022/06/04 06:46:49;;;;;;;17.63;11.93;;;26.70;90.60;;;27.58;54.52;95433.66;5083140;28;20453;-56
2022/06/04 06:49:19;;;;;;;14.43;10.00;;;26.80;90.10;;;27.75;53.68;95426.47;5080491;28;20486;-56
2022/06/04 06:51:50;;;;;;;21.07;9.63;;;27.00;89.60;;;27.95;53.36;95431.56;5082893;28;20480;-56
2022/06/04 06:54:20;;;;;;;19.97;9.93;;;27.20;88.70;;;28.19;53.12;95426.94;5071069;28;20469;-56
2022/06/04 06:56:48;;;;;;;15.27;9.47;;;27.40;88.30;;;28.41;52.65;95419.06;5074094;28;20446;-57
2022/06/04 06:59:20;;;;;;;19.50;10.23;;;27.70;87.20;;;28.61;52.13;95410.56;5078292;28;20454;-54
2022/06/04 07:01:48;;;;;;;13.03;10.13;;;27.80;86.70;;;28.79;52.38;95417.66;5074121;28;20454;-57
2022/06/04 07:04:16;;;;;;;12.83;9.13;;;28.00;85.40;;;28.96;51.32;95415.00;5073733;28;20852;-55
2022/06/04 07:06:45;;;;;;;18.53;9.73;;;28.20;84.00;;;29.13;50.47;95412.34;5066518;28;20462;-55
2022/06/04 07:09:15;;;;;;;12.83;9.00;;;28.40;82.70;;;29.29;50.46;95410.75;5074825;28;20477;-56
2022/06/04 07:11:42;;;;;;;13.70;8.67;;;28.60;81.60;;;29.43;50.62;95413.16;5076669;28;21038;-56
2022/06/04 07:14:09;;;;;;;28.73;10.67;;;28.70;81.50;;;29.58;50.71;95412.59;5071878;28;20458;-55
2022/06/04 07:16:38;;;;;;;18.83;9.20;;;28.90;81.30;;;29.78;49.23;95410.19;5073201;28;20536;-54
2022/06/04 07:19:06;;;;;;;14.63;9.63;;;29.10;79.70;;;29.92;48.96;95401.75;5070246;28;20472;-57
2022/06/04 07:21:33;;;;;;;13.13;9.80;;;29.20;77.90;;;29.99;48.16;95400.50;5072887;28;20514;-54
2022/06/04 07:24:01;;;;;;;37.50;9.20;;;29.30;76.80;;;30.17;48.48;95401.28;5072003;28;20250;-58
2022/06/04 07:26:28;;;;;;;9.70;8.80;;;29.40;76.20;;;30.34;47.57;95402.06;5071150;28;20455;-57
2022/06/04 07:28:56;;;;;;;17.47;9.20;;;29.60;74.60;;;30.31;47.51;95401.75;5070635;28;20211;-56
2022/06/04 07:31:23;;;;;;;13.80;7.67;;;29.60;73.20;;;30.20;46.93;95400.78;5069985;28;20474;-56
2022/06/04 07:33:53;;;;;;;10.77;9.23;;;29.60;72.50;;;30.10;47.67;95389.78;5070484;28;20637;-57
2022/06/04 07:36:21;;;;;;;12.07;8.07;;;29.50;71.80;;;29.92;47.22;95391.72;5064661;28;20475;-57
2022/06/04 07:38:48;;;;;;;10.93;7.70;;;29.40;71.90;;;29.87;48.45;95386.22;5068327;28;20199;-56
2022/06/04 07:41:19;;;;;;;10.90;7.77;;;29.30;73.10;;;29.97;48.70;95382.84;5068056;28;20486;-54
2022/06/04 07:43:47;;;;;;;12.63;8.23;;;29.40;73.80;;;30.09;48.26;95380.84;5065335;28;20466;-57
2022/06/04 07:46:15;;;;;;;14.40;8.13;;;29.40;74.00;;;30.24;48.50;95377.50;5062307;28;20246;-58
2022/06/04 07:48:42;;;;;;;18.37;7.33;;;29.60;74.00;;;30.35;48.20;95368.41;5074698;28;20664;-58
2022/06/04 07:51:11;;;;;;;14.77;8.33;;;29.70;73.50;;;30.37;47.73;95366.25;5076774;28;21098;-54
2022/06/04 07:53:39;;;;;;;11.50;7.87;;;29.70;72.00;;;30.28;46.81;95375.91;5078419;28;20227;-57
2022/06/04 07:56:08;;;;;;;16.00;7.60;;;29.70;70.90;;;30.21;47.24;95378.00;5081889;28;20730;-59
2022/06/04 07:58:36;;;;;;;12.37;7.97;;;29.60;70.00;;;30.15;46.84;95370.88;5079767;28;20271;-54
2022/06/04 08:01:03;;;;;;;14.13;7.70;;;29.50;70.40;;;30.05;47.57;95360.69;5068621;28;20394;-57
2022/06/04 08:03:31;;;;;;;20.23;8.33;;;29.40;70.10;;;30.03;47.45;95360.13;5070745;28;20284;-55
2022/06/04 08:05:59;;;;;;;22.30;8.90;;;29.40;70.70;;;30.06;47.40;95361.53;5074990;28;20717;-54
2022/06/04 08:08:28;;;;;;;11.90;7.50;;;29.40;71.00;;;30.06;48.08;95359.63;5075549;28;20200;-57
2022/06/04 08:10:55;;;;;;;12.53;7.40;;;29.50;71.20;;;30.05;46.97;95355.25;5067452;28;20692;-53
2022/06/04 08:13:24;;;;;;;13.20;7.60;;;29.40;70.60;;;29.98;47.18;95349.22;5075095;28;20203;-56
2022/06/04 08:15:51;;;;;;;11.87;7.83;;;29.40;70.60;;;29.96;47.17;95352.19;5069655;28;20217;-56
2022/06/04 08:18:19;;;;;;;20.20;9.80;;;29.40;70.60;;;29.92;47.19;95350.22;5074681;28;20204;-57
2022/06/04 08:20:46;;;;;;;15.30;7.97;;;29.30;70.80;;;29.91;47.23;95354.00;5072597;28;20244;-56
2022/06/04 08:23:14;;;;;;;16.40;8.33;;;29.30;71.00;;;29.93;47.49;95352.69;5072716;28;20250;-53
2022/06/04 08:25:44;;;;;;;13.20;7.03;;;29.30;71.20;;;29.98;47.95;95344.59;5069501;28;20211;-55
2022/06/04 08:28:14;;;;;;;11.27;7.80;;;29.40;71.10;;;30.00;47.84;95345.16;5066798;28;20567;-54
2022/06/04 08:30:42;;;;;;;33.23;8.27;;;29.40;70.70;;;30.01;47.66;95337.88;5068834;28;20239;-56
2022/06/04 08:33:09;;;;;;;16.23;8.53;;;29.40;71.10;;;30.00;47.41;95339.75;5069285;28;20205;-56
2022/06/04 08:35:37;;;;;;;28.53;7.50;;;29.40;71.00;;;29.95;48.24;95331.53;5068806;28;20222;-58
2022/06/04 08:38:04;;;;;;;31.70;8.87;;;29.40;71.30;;;29.95;47.45;95323.41;5066752;28;20283;-54
2022/06/04 08:40:38;;;;;;;15.37;8.87;;;29.40;71.10;;;29.88;47.93;95325.47;5069092;28;20232;-57
2022/06/04 08:43:15;;;;;;;18.47;8.00;;;29.30;70.60;;;29.87;48.67;95323.84;5064257;28;20218;-53
2022/06/04 08:45:43;;;;;;;22.10;11.03;;;29.30;71.50;;;29.92;48.31;95329.34;5068570;28;20260;-53
2022/06/04 08:48:16;;;;;;;17.17;8.27;;;29.30;71.80;;;29.97;48.04;95315.81;5058121;28;20206;-56
2022/06/04 08:50:43;;;;;;;14.37;8.50;;;29.30;71.50;;;30.01;48.30;95316.16;5069701;28;20219;-56
2022/06/04 08:53:24;;;;;;;20.83;8.63;;;29.40;71.50;;;30.01;48.29;95322.41;5075575;28;20201;-56
2022/06/04 08:59:03;;;;;;;13.10;8.80;;;29.40;71.70;;;29.99;48.98;95326.44;5074230;28;20797;-59
2022/06/04 09:01:35;;;;;;;16.90;8.30;;;29.40;72.20;;;29.99;48.67;95329.97;5072538;28;20211;-54
2022/06/04 09:04:10;;;;;;;9.53;7.20;;;29.40;72.30;;;30.00;48.50;95328.06;5076487;28;20187;-59
2022/06/04 09:06:42;;;;;;;16.50;7.90;;;29.40;72.00;;;30.01;47.93;95327.81;5073136;28;20269;-55
2022/06/04 09:09:13;;;;;;;16.13;7.37;;;29.40;71.20;;;30.03;47.83;95335.72;5068797;28;20710;-58
2022/06/04 09:11:47;;;;;;;9.80;6.90;;;29.40;71.40;;;30.04;47.29;95318.38;5075520;28;20196;-53
2022/06/04 09:14:35;;;;;;;11.00;7.40;;;29.40;70.90;;;30.06;46.77;95326.25;5077944;28;20226;-55
2022/06/04 09:17:04;;;;;;;14.10;7.80;;;29.40;70.00;;;30.02;47.48;95318.63;5073874;28;20188;-55
2022/06/04 09:19:39;;;;;;;12.93;9.87;;;29.40;70.60;;;30.01;48.51;95316.97;5070963;28;20211;-57
2022/06/04 09:22:17;;;;;;;16.30;9.17;;;29.40;72.40;;;29.96;49.46;95319.63;5075456;28;20284;-56
2022/06/04 09:24:44;;;;;;;16.80;10.53;;;29.40;73.60;;;29.91;49.61;95322.25;5075036;28;20230;-55
2022/06/04 09:27:21;;;;;;;138.73;32.77;;;29.30;73.50;;;29.90;49.50;95326.06;5075910;28;20596;-53
2022/06/04 09:30:10;;;;;;;19.90;9.93;;;29.30;74.30;;;29.87;50.14;95329.28;5073519;28;20227;-58
2022/06/04 09:32:46;;;;;;;17.87;8.43;;;29.20;74.70;;;29.82;49.17;95327.31;5074178;28;20204;-57
2022/06/04 09:35:16;;;;;;;23.60;8.90;;;29.20;74.30;;;29.79;49.46;95324.22;5069921;28;20219;-59
2022/06/04 09:37:45;;;;;;;18.90;7.40;;;29.20;74.30;;;29.77;50.02;95320.94;5071625;28;20305;-58
2022/06/04 09:40:21;;;;;;;29.00;10.60;;;29.10;74.20;;;29.72;49.04;95335.25;5070153;28;20579;-57
2022/06/04 09:42:49;;;;;;;15.73;8.30;;;29.10;74.10;;;29.71;49.06;95327.38;5072607;28;20203;-54
2022/06/04 09:45:21;;;;;;;12.10;7.03;;;29.10;74.20;;;29.68;49.04;95326.81;5071312;28;20212;-55
2022/06/04 09:47:51;;;;;;;14.30;7.70;;;29.10;73.60;;;29.69;49.88;95323.00;5065654;28;20224;-54
2022/06/04 09:50:22;;;;;;;9.43;7.00;;;29.10;74.30;;;29.73;48.93;95320.63;5056987;28;20278;-57
2022/06/04 09:53:04;;;;;;;11.50;7.70;;;29.10;73.70;;;29.76;48.67;95319.31;5068549;28;20202;-58
2022/06/04 09:55:33;;;;;;;21.63;7.50;;;29.10;72.80;;;29.78;48.49;95320.69;5084635;28;20274;-55
2022/06/04 09:58:02;;;;;;;15.60;7.03;;;29.10;73.00;;;29.82;49.07;95323.75;5083873;28;20211;-58
2022/06/04 10:00:33;;;;;;;14.73;8.27;;;29.10;72.50;;;29.84;49.20;95321.63;5081319;28;20244;-53
2022/06/04 10:03:03;;;;;;;11.53;6.50;;;29.20;72.70;;;29.89;47.74;95324.41;5074729;28;20216;-55
2022/06/04 10:05:32;;;;;;;14.63;7.40;;;29.20;71.20;;;29.91;47.85;95314.13;5081193;28;20223;-55
2022/06/04 10:08:00;;;;;;;18.70;6.90;;;29.20;71.30;;;29.95;48.06;95303.59;5083061;28;20692;-56
2022/06/04 10:10:34;;;;;;;12.70;7.20;;;29.30;70.50;;;29.97;47.63;95301.47;5078443;28;20231;-55
2022/06/04 10:15:59;;;;;;;12.83;6.83;;;29.30;68.60;;;30.02;47.14;95293.38;5073082;28;20721;-51
2022/06/04 10:18:29;;;;;;;8.70;6.13;;;29.30;68.70;;;30.09;46.96;95301.34;5070609;28;20201;-55
2022/06/04 10:21:00;;;;;;;13.73;6.60;;;29.40;69.20;;;30.19;47.26;95298.72;5069310;28;20269;-57
2022/06/04 10:23:28;;;;;;;10.13;6.70;;;29.50;68.80;;;30.29;46.75;95307.00;5071242;28;20188;-56
2022/06/04 10:26:31;;;;;;;15.83;7.70;;;29.60;68.90;;;30.42;45.55;95300.38;5072070;28;20273;-54
2022/06/04 10:29:10;;;;;;;9.97;7.93;;;29.70;67.30;;;30.57;45.90;95288.88;5070516;28;20200;-57
2022/06/04 10:31:46;;;;;;;13.63;7.07;;;29.80;67.10;;;30.75;45.47;95282.25;5071099;28;20214;-57
2022/06/04 10:34:24;;;;;;;8.53;6.60;;;30.00;67.00;;;30.93;45.46;95276.44;5071446;28;20195;-53